sensor_id;sensor_type;location;lat;lon;timestamp;temperature;humidity
2056;DHT22;1033;52.560;13.374;2022-11-25T00:00:21;5.30;99.90
2056;DHT22;1033;52.560;13.374;2022-11-25T00:02:50;5.40;99.90
2056;DHT22;1033;52.560;13.374;2022-11-25T00:05:19;5.40;99.90
2056;DHT22;1033;52.560;13.374;2022-11-25T00:07:49;5.50;99.90
2056;DHT22;1033;52.560;13.374;2022-11-25T00:10:18;5.40;99.90
2056;DHT22;1033;52.560;13.374;2022-11-25T00:12:47;5.50;99.90
2056;DHT22;1033;52.560;13.374;2022-11-25T00:15:16;5.50;99.90
2056;DHT22;1033;52.560;13.374;2022-11-25T00:17:45;5.40;99.90
2056;DHT22;1033;52.560;13.374;2022-11-25T00:20:14;5.40;99.90
2056;DHT22;1033;52.560;13.374;2022-11-25T00:22:43;5.60;99.90
2056;DHT22;1033;52.560;13.374;2022-11-25T00:25:13;5.40;99.90
2056;DHT22;1033;52.560;13.374;2022-11-25T00:27:42;5.30;99.90
2056;DHT22;1033;52.560;13.374;2022-11-25T00:30:11;5.40;99.90
2056;DHT22;1033;52.560;13.374;2022-11-25T00:32:40;5.50;99.90
2056;DHT22;1033;52.560;13.374;2022-11-25T00:35:12;5.40;99.90
2056;DHT22;1033;52.560;13.374;2022-11-25T00:37:41;5.40;99.90
2056;DHT22;1033;52.560;13.374;2022-11-25T00:40:11;5.30;99.90
2056;DHT22;1033;52.560;13.374;2022-11-25T00:42:44;5.30;99.90
2056;DHT22;1033;52.560;13.374;2022-11-25T00:45:30;5.30;99.90
2056;DHT22;1033;52.560;13.374;2022-11-25T00:47:59;5.30;99.90
2056;DHT22;1033;52.560;13.374;2022-11-25T00:50:30;5.40;99.90
2056;DHT22;1033;52.560;13.374;2022-11-25T00:52:59;5.40;99.90
2056;DHT22;1033;52.560;13.374;2022-11-25T00:55:29;5.50;99.90
2056;DHT22;1033;52.560;13.374;2022-11-25T00:58:18;5.40;99.90
2056;DHT22;1033;52.560;13.374;2022-11-25T01:05:37;5.40;99.90
2056;DHT22;1033;52.560;13.374;2022-11-25T01:08:06;5.20;99.90
2056;DHT22;1033;52.560;13.374;2022-11-25T01:10:38;5.20;99.90
2056;DHT22;1033;52.560;13.374;2022-11-25T01:13:07;5.20;99.90
2056;DHT22;1033;52.560;13.374;2022-11-25T01:15:36;5.30;99.90
2056;DHT22;1033;52.560;13.374;2022-11-25T01:18:05;5.30;99.90
2056;DHT22;1033;52.560;13.374;2022-11-25T01:20:34;5.40;99.90
2056;DHT22;1033;52.560;13.374;2022-11-25T01:23:02;5.40;99.90
2056;DHT22;1033;52.560;13.374;2022-11-25T01:25:35;5.30;99.90
2056;DHT22;1033;52.560;13.374;2022-11-25T01:28:05;5.20;99.90
2056;DHT22;1033;52.560;13.374;2022-11-25T01:30:34;5.20;99.90
2056;DHT22;1033;52.560;13.374;2022-11-25T01:33:07;5.30;99.90
2056;DHT22;1033;52.560;13.374;2022-11-25T01:35:36;5.30;99.90
2056;DHT22;1033;52.560;13.374;2022-11-25T01:38:05;5.20;99.90
2056;DHT22;1033;52.560;13.374;2022-11-25T01:40:35;5.20;99.90
2056;DHT22;1033;52.560;13.374;2022-11-25T01:43:10;5.20;99.90
2056;DHT22;1033;52.560;13.374;2022-11-25T01:45:41;5.10;99.90
2056;DHT22;1033;52.560;13.374;2022-11-25T01:48:15;5.20;99.90
2056;DHT22;1033;52.560;13.374;2022-11-25T01:50:49;5.10;99.90
2056;DHT22;1033;52.560;13.374;2022-11-25T01:53:18;5.10;99.90
2056;DHT22;1033;52.560;13.374;2022-11-25T01:55:53;5.20;99.90
2056;DHT22;1033;52.560;13.374;2022-11-25T01:58:31;5.30;99.90
2056;DHT22;1033;52.560;13.374;2022-11-25T02:01:03;5.40;99.90
2056;DHT22;1033;52.560;13.374;2022-11-25T02:03:34;5.50;99.90
2056;DHT22;1033;52.560;13.374;2022-11-25T02:06:12;5.40;99.90
2056;DHT22;1033;52.560;13.374;2022-11-25T02:08:49;5.40;99.90
2056;DHT22;1033;52.560;13.374;2022-11-25T02:11:22;5.40;99.90
2056;DHT22;1033;52.560;13.374;2022-11-25T02:13:56;5.50;99.90
2056;DHT22;1033;52.560;13.374;2022-11-25T02:16:26;5.50;99.90
2056;DHT22;1033;52.560;13.374;2022-11-25T02:18:55;5.50;99.90
2056;DHT22;1033;52.560;13.374;2022-11-25T02:21:40;5.50;99.90
2056;DHT22;1033;52.560;13.374;2022-11-25T02:24:21;5.50;99.90
2056;DHT22;1033;52.560;13.374;2022-11-25T02:26:59;5.50;99.90
2056;DHT22;1033;52.560;13.374;2022-11-25T02:29:28;5.40;99.90
2056;DHT22;1033;52.560;13.374;2022-11-25T02:31:57;5.30;99.90
2056;DHT22;1033;52.560;13.374;2022-11-25T02:34:26;5.30;99.90
2056;DHT22;1033;52.560;13.374;2022-11-25T02:36:54;5.30;99.90
2056;DHT22;1033;52.560;13.374;2022-11-25T02:39:24;5.30;99.90
2056;DHT22;1033;52.560;13.374;2022-11-25T02:41:55;5.30;99.90
2056;DHT22;1033;52.560;13.374;2022-11-25T02:44:27;5.30;99.90
2056;DHT22;1033;52.560;13.374;2022-11-25T02:46:55;5.30;99.90
2056;DHT22;1033;52.560;13.374;2022-11-25T02:49:25;5.30;99.90
2056;DHT22;1033;52.560;13.374;2022-11-25T02:51:54;5.30;99.90
2056;DHT22;1033;52.560;13.374;2022-11-25T02:54:22;5.40;99.90
2056;DHT22;1033;52.560;13.374;2022-11-25T02:56:51;5.40;99.90
2056;DHT22;1033;52.560;13.374;2022-11-25T02:59:21;5.40;99.90
2056;DHT22;1033;52.560;13.374;2022-11-25T03:01:49;5.30;99.90
2056;DHT22;1033;52.560;13.374;2022-11-25T03:04:18;5.20;99.90
2056;DHT22;1033;52.560;13.374;2022-11-25T03:06:47;5.20;99.90
2056;DHT22;1033;52.560;13.374;2022-11-25T03:09:15;5.20;99.90
2056;DHT22;1033;52.560;13.374;2022-11-25T03:11:44;5.30;99.90
2056;DHT22;1033;52.560;13.374;2022-11-25T03:14:31;5.40;99.90
2056;DHT22;1033;52.560;13.374;2022-11-25T03:17:00;5.50;99.90
2056;DHT22;1033;52.560;13.374;2022-11-25T03:19:29;5.60;99.90
2056;DHT22;1033;52.560;13.374;2022-11-25T03:21:57;5.50;99.90
2056;DHT22;1033;52.560;13.374;2022-11-25T03:24:26;5.40;99.90
2056;DHT22;1033;52.560;13.374;2022-11-25T03:26:55;5.50;99.90
2056;DHT22;1033;52.560;13.374;2022-11-25T03:29:23;5.40;99.90
2056;DHT22;1033;52.560;13.374;2022-11-25T03:31:54;5.30;99.90
2056;DHT22;1033;52.560;13.374;2022-11-25T03:34:22;5.50;99.90
2056;DHT22;1033;52.560;13.374;2022-11-25T03:36:51;5.40;99.90
2056;DHT22;1033;52.560;13.374;2022-11-25T03:39:23;5.30;99.90
2056;DHT22;1033;52.560;13.374;2022-11-25T03:41:52;5.40;99.90
2056;DHT22;1033;52.560;13.374;2022-11-25T03:44:21;5.30;99.90
2056;DHT22;1033;52.560;13.374;2022-11-25T03:46:51;5.30;99.90
2056;DHT22;1033;52.560;13.374;2022-11-25T03:49:23;5.30;99.90
2056;DHT22;1033;52.560;13.374;2022-11-25T03:51:56;5.40;99.90
2056;DHT22;1033;52.560;13.374;2022-11-25T03:54:26;5.40;99.90
2056;DHT22;1033;52.560;13.374;2022-11-25T03:57:12;5.40;99.90
2056;DHT22;1033;52.560;13.374;2022-11-25T03:59:42;5.50;99.90
2056;DHT22;1033;52.560;13.374;2022-11-25T04:02:15;5.50;99.90
2056;DHT22;1033;52.560;13.374;2022-11-25T04:08:07;5.60;99.90
2056;DHT22;1033;52.560;13.374;2022-11-25T04:10:38;5.60;99.90
2056;DHT22;1033;52.560;13.374;2022-11-25T04:13:10;5.50;99.90
2056;DHT22;1033;52.560;13.374;2022-11-25T04:15:44;5.50;99.90
2056;DHT22;1033;52.560;13.374;2022-11-25T04:18:21;5.50;99.90
2056;DHT22;1033;52.560;13.374;2022-11-25T04:20:54;5.50;99.90
2056;DHT22;1033;52.560;13.374;2022-11-25T04:23:27;5.50;99.90
2056;DHT22;1033;52.560;13.374;2022-11-25T04:26:05;5.60;99.90
2056;DHT22;1033;52.560;13.374;2022-11-25T04:28:39;5.80;99.90
2056;DHT22;1033;52.560;13.374;2022-11-25T04:31:10;5.70;99.90
2056;DHT22;1033;52.560;13.374;2022-11-25T04:33:44;5.70;99.90
2056;DHT22;1033;52.560;13.374;2022-11-25T04:36:20;5.60;99.90
2056;DHT22;1033;52.560;13.374;2022-11-25T04:38:53;5.60;99.90
2056;DHT22;1033;52.560;13.374;2022-11-25T04:41:23;5.70;99.90
2056;DHT22;1033;52.560;13.374;2022-11-25T04:43:53;5.50;99.90
2056;DHT22;1033;52.560;13.374;2022-11-25T04:46:32;5.60;99.90
2056;DHT22;1033;52.560;13.374;2022-11-25T04:49:10;5.70;99.90
2056;DHT22;1033;52.560;13.374;2022-11-25T04:51:40;5.80;99.90
2056;DHT22;1033;52.560;13.374;2022-11-25T04:54:10;5.80;99.90
2056;DHT22;1033;52.560;13.374;2022-11-25T04:56:44;5.80;99.90
2056;DHT22;1033;52.560;13.374;2022-11-25T04:59:13;5.80;99.90
2056;DHT22;1033;52.560;13.374;2022-11-25T05:02:00;5.80;99.90
2056;DHT22;1033;52.560;13.374;2022-11-25T05:04:37;5.90;99.90
2056;DHT22;1033;52.560;13.374;2022-11-25T05:07:08;5.90;99.90
2056;DHT22;1033;52.560;13.374;2022-11-25T05:09:39;5.90;99.90
2056;DHT22;1033;52.560;13.374;2022-11-25T05:12:19;5.80;99.90
2056;DHT22;1033;52.560;13.374;2022-11-25T05:14:50;5.80;99.90
2056;DHT22;1033;52.560;13.374;2022-11-25T05:17:22;5.90;99.90
2056;DHT22;1033;52.560;13.374;2022-11-25T05:19:57;5.80;99.90
2056;DHT22;1033;52.560;13.374;2022-11-25T05:22:29;5.80;99.90
2056;DHT22;1033;52.560;13.374;2022-11-25T05:25:00;5.90;99.90
2056;DHT22;1033;52.560;13.374;2022-11-25T05:27:35;5.90;99.90
2056;DHT22;1033;52.560;13.374;2022-11-25T05:30:08;5.90;99.90
2056;DHT22;1033;52.560;13.374;2022-11-25T05:32:38;5.90;99.90
2056;DHT22;1033;52.560;13.374;2022-11-25T05:35:11;5.90;99.90
2056;DHT22;1033;52.560;13.374;2022-11-25T05:37:42;6.00;99.90
2056;DHT22;1033;52.560;13.374;2022-11-25T05:40:12;6.00;99.90
2056;DHT22;1033;52.560;13.374;2022-11-25T05:42:59;6.00;99.90
2056;DHT22;1033;52.560;13.374;2022-11-25T05:45:30;5.90;99.90
2056;DHT22;1033;52.560;13.374;2022-11-25T05:48:02;6.00;99.90
2056;DHT22;1033;52.560;13.374;2022-11-25T05:50:33;5.90;99.90
2056;DHT22;1033;52.560;13.374;2022-11-25T05:53:17;5.90;99.90
2056;DHT22;1033;52.560;13.374;2022-11-25T05:55:53;5.90;99.90
2056;DHT22;1033;52.560;13.374;2022-11-25T05:58:50;6.00;99.90
2056;DHT22;1033;52.560;13.374;2022-11-25T06:01:25;5.70;99.90
2056;DHT22;1033;52.560;13.374;2022-11-25T06:03:58;5.80;99.90
2056;DHT22;1033;52.560;13.374;2022-11-25T06:06:29;5.70;99.90
2056;DHT22;1033;52.560;13.374;2022-11-25T06:08:59;5.80;99.90
2056;DHT22;1033;52.560;13.374;2022-11-25T06:11:29;5.80;99.90
2056;DHT22;1033;52.560;13.374;2022-11-25T06:13:58;5.80;99.90
2056;DHT22;1033;52.560;13.374;2022-11-25T06:16:27;5.70;99.90
2056;DHT22;1033;52.560;13.374;2022-11-25T06:19:15;5.70;99.90
2056;DHT22;1033;52.560;13.374;2022-11-25T06:21:46;5.60;99.90
2056;DHT22;1033;52.560;13.374;2022-11-25T06:24:16;5.50;99.90
2056;DHT22;1033;52.560;13.374;2022-11-25T06:26:49;5.50;99.90
2056;DHT22;1033;52.560;13.374;2022-11-25T06:29:19;5.30;99.90
2056;DHT22;1033;52.560;13.374;2022-11-25T06:31:50;5.10;99.90
2056;DHT22;1033;52.560;13.374;2022-11-25T06:34:37;5.00;99.90
2056;DHT22;1033;52.560;13.374;2022-11-25T06:37:31;4.90;99.90
2056;DHT22;1033;52.560;13.374;2022-11-25T06:40:00;4.70;99.90
2056;DHT22;1033;52.560;13.374;2022-11-25T06:42:30;4.70;99.90
2056;DHT22;1033;52.560;13.374;2022-11-25T06:44:59;4.60;99.90
2056;DHT22;1033;52.560;13.374;2022-11-25T06:47:28;4.50;99.90
2056;DHT22;1033;52.560;13.374;2022-11-25T06:50:00;4.30;99.90
2056;DHT22;1033;52.560;13.374;2022-11-25T06:52:31;4.30;99.90
2056;DHT22;1033;52.560;13.374;2022-11-25T06:55:01;4.30;99.90
2056;DHT22;1033;52.560;13.374;2022-11-25T06:57:30;4.10;99.90
2056;DHT22;1033;52.560;13.374;2022-11-25T06:59:59;4.10;99.90
2056;DHT22;1033;52.560;13.374;2022-11-25T07:02:29;4.00;99.90
2056;DHT22;1033;52.560;13.374;2022-11-25T07:05:08;4.10;99.90
2056;DHT22;1033;52.560;13.374;2022-11-25T07:07:43;4.10;99.90
2056;DHT22;1033;52.560;13.374;2022-11-25T07:10:13;4.10;99.90
2056;DHT22;1033;52.560;13.374;2022-11-25T07:12:43;4.00;99.90
2056;DHT22;1033;52.560;13.374;2022-11-25T07:15:14;4.10;99.90
2056;DHT22;1033;52.560;13.374;2022-11-25T07:17:46;4.00;99.90
2056;DHT22;1033;52.560;13.374;2022-11-25T07:20:16;4.10;99.90
2056;DHT22;1033;52.560;13.374;2022-11-25T07:22:49;4.10;99.90
2056;DHT22;1033;52.560;13.374;2022-11-25T07:25:19;4.20;99.90
2056;DHT22;1033;52.560;13.374;2022-11-25T07:27:55;4.20;99.90
2056;DHT22;1033;52.560;13.374;2022-11-25T07:30:25;4.20;99.90
2056;DHT22;1033;52.560;13.374;2022-11-25T07:33:14;4.30;99.90
2056;DHT22;1033;52.560;13.374;2022-11-25T07:35:44;4.40;99.90
2056;DHT22;1033;52.560;13.374;2022-11-25T07:38:15;4.60;99.90
2056;DHT22;1033;52.560;13.374;2022-11-25T07:40:46;4.60;99.90
2056;DHT22;1033;52.560;13.374;2022-11-25T07:43:17;4.70;99.90
2056;DHT22;1033;52.560;13.374;2022-11-25T07:45:46;4.60;99.90
2056;DHT22;1033;52.560;13.374;2022-11-25T07:48:16;4.70;99.90
2056;DHT22;1033;52.560;13.374;2022-11-25T07:50:45;4.80;99.90
2056;DHT22;1033;52.560;13.374;2022-11-25T07:53:18;4.90;99.90
2056;DHT22;1033;52.560;13.374;2022-11-25T07:55:48;4.90;99.90
2056;DHT22;1033;52.560;13.374;2022-11-25T07:58:17;5.00;99.90
2056;DHT22;1033;52.560;13.374;2022-11-25T08:00:46;5.00;99.90
2056;DHT22;1033;52.560;13.374;2022-11-25T08:03:16;5.10;99.90
2056;DHT22;1033;52.560;13.374;2022-11-25T08:05:45;5.10;99.90
2056;DHT22;1033;52.560;13.374;2022-11-25T08:08:16;5.10;99.90
2056;DHT22;1033;52.560;13.374;2022-11-25T08:10:47;5.10;99.90
2056;DHT22;1033;52.560;13.374;2022-11-25T08:13:16;5.10;99.90
2056;DHT22;1033;52.560;13.374;2022-11-25T08:15:46;5.10;99.90
2056;DHT22;1033;52.560;13.374;2022-11-25T08:18:16;5.20;99.90
2056;DHT22;1033;52.560;13.374;2022-11-25T08:20:46;5.30;99.90
2056;DHT22;1033;52.560;13.374;2022-11-25T08:23:17;5.40;99.90
2056;DHT22;1033;52.560;13.374;2022-11-25T14:51:09;5.40;99.90
2056;DHT22;1033;52.560;13.374;2022-11-25T14:53:41;6.30;99.90
2056;DHT22;1033;52.560;13.374;2022-11-25T14:56:19;6.30;99.90
2056;DHT22;1033;52.560;13.374;2022-11-25T14:58:52;6.30;99.90
2056;DHT22;1033;52.560;13.374;2022-11-25T15:01:24;6.30;99.90
2056;DHT22;1033;52.560;13.374;2022-11-25T15:04:03;6.40;99.90
2056;DHT22;1033;52.560;13.374;2022-11-25T15:06:35;6.30;99.90
2056;DHT22;1033;52.560;13.374;2022-11-25T15:09:18;6.40;99.90
2056;DHT22;1033;52.560;13.374;2022-11-25T15:11:52;6.30;99.90
2056;DHT22;1033;52.560;13.374;2022-11-25T15:14:27;6.40;99.90
2056;DHT22;1033;52.560;13.374;2022-11-25T15:16:59;6.50;99.90
2056;DHT22;1033;52.560;13.374;2022-11-25T15:19:36;6.50;99.90
2056;DHT22;1033;52.560;13.374;2022-11-25T15:22:06;6.50;99.90
2056;DHT22;1033;52.560;13.374;2022-11-25T15:24:54;6.50;99.90
2056;DHT22;1033;52.560;13.374;2022-11-25T15:27:42;6.50;99.90
2056;DHT22;1033;52.560;13.374;2022-11-25T15:30:23;6.50;99.90
2056;DHT22;1033;52.560;13.374;2022-11-25T15:32:53;6.40;99.90
2056;DHT22;1033;52.560;13.374;2022-11-25T15:35:26;6.60;99.90
2056;DHT22;1033;52.560;13.374;2022-11-25T15:37:55;6.50;99.90
2056;DHT22;1033;52.560;13.374;2022-11-25T15:40:32;6.50;99.90
2056;DHT22;1033;52.560;13.374;2022-11-25T15:43:21;6.60;99.90
2056;DHT22;1033;52.560;13.374;2022-11-25T15:45:54;6.60;99.90
2056;DHT22;1033;52.560;13.374;2022-11-25T15:48:29;6.60;99.90
2056;DHT22;1033;52.560;13.374;2022-11-25T15:51:05;6.50;99.90
2056;DHT22;1033;52.560;13.374;2022-11-25T15:56:25;6.70;99.90
2056;DHT22;1033;52.560;13.374;2022-11-25T15:58:55;6.70;99.90
2056;DHT22;1033;52.560;13.374;2022-11-25T16:01:28;6.60;99.90
2056;DHT22;1033;52.560;13.374;2022-11-25T16:04:16;6.60;99.90
2056;DHT22;1033;52.560;13.374;2022-11-25T16:06:55;6.60;99.90
2056;DHT22;1033;52.560;13.374;2022-11-25T16:13:36;6.60;99.90
2056;DHT22;1033;52.560;13.374;2022-11-25T16:16:25;6.60;99.90
2056;DHT22;1033;52.560;13.374;2022-11-25T16:19:11;6.70;99.90
2056;DHT22;1033;52.560;13.374;2022-11-25T16:21:50;6.70;99.90
2056;DHT22;1033;52.560;13.374;2022-11-25T16:24:35;6.70;99.90
2056;DHT22;1033;52.560;13.374;2022-11-25T16:27:19;6.70;99.90
2056;DHT22;1033;52.560;13.374;2022-11-25T16:29:53;6.70;99.90
2056;DHT22;1033;52.560;13.374;2022-11-25T16:32:25;6.70;99.90
2056;DHT22;1033;52.560;13.374;2022-11-25T16:34:56;6.80;99.90
2056;DHT22;1033;52.560;13.374;2022-11-25T16:37:33;6.90;99.90
2056;DHT22;1033;52.560;13.374;2022-11-25T16:40:07;6.80;99.90
2056;DHT22;1033;52.560;13.374;2022-11-25T16:42:39;6.80;99.90
2056;DHT22;1033;52.560;13.374;2022-11-25T16:45:16;6.70;99.90
2056;DHT22;1033;52.560;13.374;2022-11-25T16:47:47;6.70;99.90
2056;DHT22;1033;52.560;13.374;2022-11-25T16:50:17;6.80;99.90
2056;DHT22;1033;52.560;13.374;2022-11-25T16:52:47;6.80;99.90
2056;DHT22;1033;52.560;13.374;2022-11-25T16:55:17;6.90;99.90
2056;DHT22;1033;52.560;13.374;2022-11-25T16:57:46;6.80;99.90
2056;DHT22;1033;52.560;13.374;2022-11-25T17:00:15;6.80;99.90
2056;DHT22;1033;52.560;13.374;2022-11-25T17:02:44;6.80;99.90
2056;DHT22;1033;52.560;13.374;2022-11-25T17:05:16;6.90;99.90
2056;DHT22;1033;52.560;13.374;2022-11-25T17:07:46;6.90;99.90
2056;DHT22;1033;52.560;13.374;2022-11-25T17:10:19;6.90;99.90
2056;DHT22;1033;52.560;13.374;2022-11-25T17:12:49;6.90;99.90
2056;DHT22;1033;52.560;13.374;2022-11-25T17:15:22;6.90;99.90
2056;DHT22;1033;52.560;13.374;2022-11-25T17:17:55;6.90;99.90
2056;DHT22;1033;52.560;13.374;2022-11-25T17:20:24;7.00;99.90
2056;DHT22;1033;52.560;13.374;2022-11-25T17:22:54;6.90;99.90
2056;DHT22;1033;52.560;13.374;2022-11-25T17:25:26;6.90;99.90
2056;DHT22;1033;52.560;13.374;2022-11-25T17:28:03;6.80;99.90
2056;DHT22;1033;52.560;13.374;2022-11-25T17:30:32;6.90;99.90
2056;DHT22;1033;52.560;13.374;2022-11-25T17:33:03;6.90;99.90
2056;DHT22;1033;52.560;13.374;2022-11-25T17:35:34;7.00;99.90
2056;DHT22;1033;52.560;13.374;2022-11-25T17:38:11;6.90;99.90
2056;DHT22;1033;52.560;13.374;2022-11-25T17:40:47;6.90;99.90
2056;DHT22;1033;52.560;13.374;2022-11-25T17:43:19;7.00;99.90
2056;DHT22;1033;52.560;13.374;2022-11-25T17:45:48;7.00;99.90
2056;DHT22;1033;52.560;13.374;2022-11-25T17:48:18;7.00;99.90
2056;DHT22;1033;52.560;13.374;2022-11-25T17:50:48;7.00;99.90
2056;DHT22;1033;52.560;13.374;2022-11-25T17:53:17;7.00;99.90
2056;DHT22;1033;52.560;13.374;2022-11-25T17:55:47;7.00;99.90
2056;DHT22;1033;52.560;13.374;2022-11-25T17:58:19;6.90;99.90
2056;DHT22;1033;52.560;13.374;2022-11-25T18:00:48;6.80;99.90
2056;DHT22;1033;52.560;13.374;2022-11-25T18:03:17;6.80;99.90
2056;DHT22;1033;52.560;13.374;2022-11-25T18:05:47;6.70;99.90
2056;DHT22;1033;52.560;13.374;2022-11-25T18:08:17;6.70;99.90
2056;DHT22;1033;52.560;13.374;2022-11-25T18:10:47;6.80;99.90
2056;DHT22;1033;52.560;13.374;2022-11-25T18:13:16;6.80;99.90
2056;DHT22;1033;52.560;13.374;2022-11-25T18:15:45;6.80;99.90
2056;DHT22;1033;52.560;13.374;2022-11-25T18:18:18;6.90;99.90
2056;DHT22;1033;52.560;13.374;2022-11-25T18:20:48;7.10;99.90
2056;DHT22;1033;52.560;13.374;2022-11-25T18:23:17;7.00;99.90
2056;DHT22;1033;52.560;13.374;2022-11-25T18:25:48;7.00;99.90
2056;DHT22;1033;52.560;13.374;2022-11-25T18:28:21;6.90;99.90
2056;DHT22;1033;52.560;13.374;2022-11-25T18:30:52;7.00;99.90
2056;DHT22;1033;52.560;13.374;2022-11-25T18:33:29;6.90;99.90
2056;DHT22;1033;52.560;13.374;2022-11-25T18:35:59;6.90;99.90
2056;DHT22;1033;52.560;13.374;2022-11-25T18:38:28;6.90;99.90
2056;DHT22;1033;52.560;13.374;2022-11-25T18:40:58;7.00;99.90
2056;DHT22;1033;52.560;13.374;2022-11-25T18:43:29;7.00;99.90
2056;DHT22;1033;52.560;13.374;2022-11-25T18:46:00;6.90;99.90
2056;DHT22;1033;52.560;13.374;2022-11-25T18:48:31;7.10;99.90
2056;DHT22;1033;52.560;13.374;2022-11-25T18:51:00;7.10;99.90
2056;DHT22;1033;52.560;13.374;2022-11-25T18:53:29;7.00;99.90
2056;DHT22;1033;52.560;13.374;2022-11-25T18:56:02;7.00;99.90
2056;DHT22;1033;52.560;13.374;2022-11-25T18:58:32;7.10;99.90
2056;DHT22;1033;52.560;13.374;2022-11-25T19:01:02;7.00;99.90
2056;DHT22;1033;52.560;13.374;2022-11-25T19:03:39;7.10;99.90
2056;DHT22;1033;52.560;13.374;2022-11-25T19:06:16;7.20;99.90
2056;DHT22;1033;52.560;13.374;2022-11-25T19:08:47;7.30;99.90
2056;DHT22;1033;52.560;13.374;2022-11-25T19:11:25;7.40;99.90
2056;DHT22;1033;52.560;13.374;2022-11-25T19:14:01;7.30;99.90
2056;DHT22;1033;52.560;13.374;2022-11-25T19:16:35;7.20;99.90
2056;DHT22;1033;52.560;13.374;2022-11-25T19:19:17;7.10;99.90
2056;DHT22;1033;52.560;13.374;2022-11-25T19:21:45;7.20;99.90
2056;DHT22;1033;52.560;13.374;2022-11-25T19:24:34;7.30;99.90
2056;DHT22;1033;52.560;13.374;2022-11-25T19:31:19;7.30;99.90
2056;DHT22;1033;52.560;13.374;2022-11-25T19:33:52;7.20;99.90
2056;DHT22;1033;52.560;13.374;2022-11-25T19:36:26;7.20;99.90
2056;DHT22;1033;52.560;13.374;2022-11-25T19:39:15;7.30;99.90
2056;DHT22;1033;52.560;13.374;2022-11-25T19:41:48;7.30;99.90
2056;DHT22;1033;52.560;13.374;2022-11-25T19:44:20;7.30;99.90
2056;DHT22;1033;52.560;13.374;2022-11-25T19:46:52;7.40;99.90
2056;DHT22;1033;52.560;13.374;2022-11-25T19:49:42;7.40;99.90
2056;DHT22;1033;52.560;13.374;2022-11-25T19:52:16;7.40;99.90
2056;DHT22;1033;52.560;13.374;2022-11-25T19:54:50;7.40;99.90
2056;DHT22;1033;52.560;13.374;2022-11-25T19:57:21;7.50;99.90
2056;DHT22;1033;52.560;13.374;2022-11-25T19:59:51;7.50;99.90
2056;DHT22;1033;52.560;13.374;2022-11-25T20:02:23;7.60;99.90
2056;DHT22;1033;52.560;13.374;2022-11-25T20:04:55;7.50;99.90
2056;DHT22;1033;52.560;13.374;2022-11-25T20:07:28;7.50;99.90
2056;DHT22;1033;52.560;13.374;2022-11-25T20:10:06;7.50;99.90
2056;DHT22;1033;52.560;13.374;2022-11-25T20:12:43;7.60;99.90
2056;DHT22;1033;52.560;13.374;2022-11-25T20:15:13;7.50;99.90
2056;DHT22;1033;52.560;13.374;2022-11-25T20:17:52;7.50;99.90
2056;DHT22;1033;52.560;13.374;2022-11-25T20:20:27;7.50;99.90
2056;DHT22;1033;52.560;13.374;2022-11-25T20:23:06;7.50;99.90
2056;DHT22;1033;52.560;13.374;2022-11-25T20:25:41;7.40;99.90
2056;DHT22;1033;52.560;13.374;2022-11-25T20:28:19;7.40;99.90
2056;DHT22;1033;52.560;13.374;2022-11-25T20:30:50;7.50;99.90
2056;DHT22;1033;52.560;13.374;2022-11-25T20:33:20;7.40;99.90
2056;DHT22;1033;52.560;13.374;2022-11-25T20:35:54;7.30;99.90
2056;DHT22;1033;52.560;13.374;2022-11-25T20:38:34;7.30;99.90
2056;DHT22;1033;52.560;13.374;2022-11-25T20:44:16;7.40;99.90
2056;DHT22;1033;52.560;13.374;2022-11-25T20:46:45;7.40;99.90
2056;DHT22;1033;52.560;13.374;2022-11-25T20:49:23;7.40;99.90
2056;DHT22;1033;52.560;13.374;2022-11-25T20:51:56;7.40;99.90
2056;DHT22;1033;52.560;13.374;2022-11-25T20:54:27;7.40;99.90
2056;DHT22;1033;52.560;13.374;2022-11-25T20:56:59;7.40;99.90
2056;DHT22;1033;52.560;13.374;2022-11-25T20:59:33;7.40;99.90
2056;DHT22;1033;52.560;13.374;2022-11-25T21:02:05;7.50;99.90
2056;DHT22;1033;52.560;13.374;2022-11-25T21:04:37;7.50;99.90
2056;DHT22;1033;52.560;13.374;2022-11-25T21:07:14;7.40;99.90
2056;DHT22;1033;52.560;13.374;2022-11-25T21:09:47;7.40;99.90
2056;DHT22;1033;52.560;13.374;2022-11-25T21:12:22;7.40;99.90
2056;DHT22;1033;52.560;13.374;2022-11-25T21:14:53;7.40;99.90
2056;DHT22;1033;52.560;13.374;2022-11-25T21:17:22;7.40;99.90
2056;DHT22;1033;52.560;13.374;2022-11-25T21:19:56;7.40;99.90
2056;DHT22;1033;52.560;13.374;2022-11-25T21:22:27;7.40;99.90
2056;DHT22;1033;52.560;13.374;2022-11-25T21:24:56;7.30;99.90
2056;DHT22;1033;52.560;13.374;2022-11-25T21:27:26;7.30;99.90
2056;DHT22;1033;52.560;13.374;2022-11-25T21:29:58;7.30;99.90
2056;DHT22;1033;52.560;13.374;2022-11-25T21:32:29;7.30;99.90
2056;DHT22;1033;52.560;13.374;2022-11-25T21:35:00;7.30;99.90
2056;DHT22;1033;52.560;13.374;2022-11-25T21:37:33;7.40;99.90
2056;DHT22;1033;52.560;13.374;2022-11-25T21:40:09;7.40;99.90
2056;DHT22;1033;52.560;13.374;2022-11-25T21:42:58;7.40;99.90
2056;DHT22;1033;52.560;13.374;2022-11-25T21:45:28;7.40;99.90
2056;DHT22;1033;52.560;13.374;2022-11-25T21:48:00;7.40;99.90
2056;DHT22;1033;52.560;13.374;2022-11-25T21:50:31;7.40;99.90
2056;DHT22;1033;52.560;13.374;2022-11-25T21:53:03;7.40;99.90
2056;DHT22;1033;52.560;13.374;2022-11-25T21:55:33;7.40;99.90
2056;DHT22;1033;52.560;13.374;2022-11-25T21:58:04;7.40;99.90
2056;DHT22;1033;52.560;13.374;2022-11-25T22:00:34;7.40;99.90
2056;DHT22;1033;52.560;13.374;2022-11-25T22:03:09;7.50;99.90
2056;DHT22;1033;52.560;13.374;2022-11-25T22:05:45;7.40;99.90
2056;DHT22;1033;52.560;13.374;2022-11-25T22:08:23;7.40;99.90
2056;DHT22;1033;52.560;13.374;2022-11-25T22:10:57;7.50;99.90
2056;DHT22;1033;52.560;13.374;2022-11-25T22:13:34;7.40;99.90
2056;DHT22;1033;52.560;13.374;2022-11-25T22:16:08;7.50;99.90
2056;DHT22;1033;52.560;13.374;2022-11-25T22:18:43;7.50;99.90
2056;DHT22;1033;52.560;13.374;2022-11-25T22:21:17;7.40;99.90
2056;DHT22;1033;52.560;13.374;2022-11-25T22:23:47;7.50;99.90
2056;DHT22;1033;52.560;13.374;2022-11-25T22:26:22;7.40;99.90
2056;DHT22;1033;52.560;13.374;2022-11-25T22:28:58;7.40;99.90
2056;DHT22;1033;52.560;13.374;2022-11-25T22:31:30;7.50;99.90
2056;DHT22;1033;52.560;13.374;2022-11-25T22:34:03;7.50;99.90
2056;DHT22;1033;52.560;13.374;2022-11-25T22:36:40;7.60;99.90
2056;DHT22;1033;52.560;13.374;2022-11-25T22:39:13;7.50;99.90
2056;DHT22;1033;52.560;13.374;2022-11-25T22:41:47;7.50;99.90
2056;DHT22;1033;52.560;13.374;2022-11-25T22:44:24;7.50;99.90
2056;DHT22;1033;52.560;13.374;2022-11-25T22:46:59;7.50;99.90
2056;DHT22;1033;52.560;13.374;2022-11-25T22:49:35;7.60;99.90
2056;DHT22;1033;52.560;13.374;2022-11-25T22:52:17;7.60;99.90
2056;DHT22;1033;52.560;13.374;2022-11-25T22:54:50;7.50;99.90
2056;DHT22;1033;52.560;13.374;2022-11-25T22:57:20;7.50;99.90
2056;DHT22;1033;52.560;13.374;2022-11-25T22:59:50;7.40;99.90
2056;DHT22;1033;52.560;13.374;2022-11-25T23:02:23;7.50;99.90
2056;DHT22;1033;52.560;13.374;2022-11-25T23:04:59;7.50;99.90
2056;DHT22;1033;52.560;13.374;2022-11-25T23:07:43;7.40;99.90
2056;DHT22;1033;52.560;13.374;2022-11-25T23:10:19;7.50;99.90
2056;DHT22;1033;52.560;13.374;2022-11-25T23:12:54;7.50;99.90
2056;DHT22;1033;52.560;13.374;2022-11-25T23:15:24;7.40;99.90
2056;DHT22;1033;52.560;13.374;2022-11-25T23:17:57;7.50;99.90
2056;DHT22;1033;52.560;13.374;2022-11-25T23:20:35;7.40;99.90
2056;DHT22;1033;52.560;13.374;2022-11-25T23:23:12;7.40;99.90
2056;DHT22;1033;52.560;13.374;2022-11-25T23:25:49;7.50;99.90